01:02
Airports
Links
Donate
Help keep this website running!
PayPal
Bitcoin
METAR
KJAX 180056Z 35005KT 10SM FEW050 16/14 A3010 RMK AO2 SLP194 T01610139
Current Weather Conditions at KJAX
VFR 00:56:00 18-11-17
Automated station
Altimeter:30.10 hg
Temp:16.1°c 61°f
Dew point:13.9°c 55°f
Wind:5 knots, 5.8 mph, 3 m/s, from 350°
Visibility:10.0 statute miles
5000(FEW) A few
Past METAR reports
VFR 23:56:00 17-11-17
Automated station
Altimeter:30.10 hg
Temp:17.2°c 63°f
Dew point:13.9°c 55°f
Wind:6 knots, 6.9 mph, 3 m/s, from 20°
Visibility:10.0 statute miles
25000(SCT) Scattered
5000(SCT) Scattered
KJAX 172356Z 02006KT 10SM SCT050 SCT250 17/14 A3010 RMK AO2 SLP192 T01720139 10239 20172 50005
VFR 22:56:00 17-11-17
Automated station
Altimeter:30.10 hg
Temp:17.8°c 63°f
Dew point:14.4°c 57°f
Wind:7 knots, 8.1 mph, 4 m/s, from 10°
Visibility:10.0 statute miles
5000(BKN) Broken
KJAX 172256Z 01007KT 10SM BKN050 18/14 A3010 RMK AO2 SLP192 T01780144
VFR 21:56:00 17-11-17
Automated station
Altimeter:30.09 hg
Temp:19.4°c 66°f
Dew point:13.9°c 55°f
Wind:10 knots, 11.5 mph, 5 m/s, from 50°
Visibility:10.0 statute miles
5000(BKN) Broken
KJAX 172156Z 05010KT 10SM BKN050 19/14 A3009 RMK AO2 SLP189 T01940139
VFR 20:56:00 17-11-17
Automated station
Altimeter:30.08 hg
Temp:21.7°c 70°f
Dew point:12.2°c 54°f
Wind:11 knots, 12.7 mph, 6 m/s, from 40°
Visibility:10.0 statute miles
6000(BKN) Broken
4500(BKN) Broken
KJAX 172056Z 04011KT 10SM BKN045 BKN060 22/12 A3008 RMK AO2 SLP187 T02170122 55008
VFR 19:56:00 17-11-17
Automated station
Altimeter:30.07 hg
Temp:22.8°c 72°f
Dew point:12.2°c 54°f
Wind:12 knots, 13.8 mph, 6 m/s, from 50°
Visibility:10.0 statute miles
6000(SCT) Scattered
4500(SCT) Scattered
KJAX 171956Z 05012KT 10SM SCT045 SCT060 23/12 A3007 RMK AO2 SLP184 T02280122
TAF
KJAX 172320Z 1800/1824 06007KT P6SM SCT050 FM180300 VRB03KT P6SM FEW250 FM181500 21008KT P6SM SCT250
Forecast at KJAX
00:00 18-11-17 to 03:00 18-11-17
Wind:7 Knots from 60°
Visibility:6.21 statute miles
5000SCT Scattered
FM 03:00 18-11-17 to 15:00 18-11-17
Wind:3 Knots from 360°
Visibility:6.21 statute miles
25000FEW A few
FM 15:00 18-11-17 to 00:00 19-11-17
Wind:8 Knots from 210°
Visibility:6.21 statute miles
25000SCT Scattered